createdAt,value
2023-03-04T00:00:10.943Z,8.40
2023-03-04T00:02:38.251Z,8.40
2023-03-04T00:05:05.943Z,8.50
2023-03-04T00:07:32.921Z,8.60
2023-03-04T00:10:00.189Z,8.40
2023-03-04T00:12:27.470Z,8.50
2023-03-04T00:14:54.612Z,8.40
2023-03-04T00:17:27.042Z,8.20
2023-03-04T00:19:53.852Z,8.20
2023-03-04T00:22:20.674Z,8.30
2023-03-04T00:24:47.633Z,8.30
2023-03-04T00:27:14.771Z,8.30
2023-03-04T00:29:41.658Z,8.40
2023-03-04T00:32:08.785Z,8.30
2023-03-04T00:34:36.496Z,8.30
2023-03-04T00:37:04.173Z,8.40
2023-03-04T00:39:31.239Z,8.50
2023-03-04T00:41:58.105Z,8.40
2023-03-04T00:44:25.279Z,8.40
2023-03-04T00:46:52.331Z,8.40
2023-03-04T00:49:19.612Z,8.50
2023-03-04T00:51:46.632Z,8.40
2023-03-04T00:54:13.606Z,8.40
2023-03-04T00:56:40.590Z,8.50
2023-03-04T00:59:07.568Z,8.50
2023-03-04T01:01:34.573Z,8.50
2023-03-04T01:04:01.617Z,8.40
2023-03-04T01:06:28.671Z,8.50
2023-03-04T01:08:55.662Z,8.40
2023-03-04T01:11:22.597Z,8.30
2023-03-04T01:13:49.425Z,8.30
2023-03-04T01:16:16.706Z,8.30
2023-03-04T01:18:43.911Z,8.20
2023-03-04T01:21:10.793Z,8.10
2023-03-04T01:23:37.731Z,8.10
2023-03-04T01:26:05.108Z,8.30
2023-03-04T01:28:35.864Z,8.30
2023-03-04T01:31:04.089Z,8.30
2023-03-04T01:33:31.751Z,8.30
2023-03-04T01:35:59.039Z,8.30
2023-03-04T01:38:26.483Z,8.30
2023-03-04T01:40:54.040Z,8.30
2023-03-04T01:43:27.972Z,8.20
2023-03-04T01:45:56.386Z,8.30
2023-03-04T01:48:28.052Z,8.20
2023-03-04T01:50:55.213Z,8.10
2023-03-04T01:53:27.535Z,8.30
2023-03-04T01:56:01.463Z,8.20
2023-03-04T01:58:33.377Z,8.30
2023-03-04T02:01:00.490Z,8.30
2023-03-04T02:03:28.067Z,8.40
2023-03-04T02:05:56.345Z,8.40
2023-03-04T02:08:25.437Z,8.40
2023-03-04T02:10:52.869Z,8.50
2023-03-04T02:13:20.270Z,8.40
2023-03-04T02:15:47.656Z,8.40
2023-03-04T02:18:21.298Z,8.30
2023-03-04T02:21:25.947Z,8.30
2023-03-04T02:24:17.383Z,8.40
2023-03-04T02:26:46.942Z,8.40
2023-03-04T02:29:16.380Z,8.30
2023-03-04T02:31:44.466Z,8.30
2023-03-04T02:34:22.210Z,8.30
2023-03-04T02:36:52.194Z,8.30
2023-03-04T02:39:34.117Z,8.40
2023-03-04T02:42:02.428Z,8.40
2023-03-04T02:44:32.086Z,8.30
2023-03-04T02:46:59.366Z,8.40
2023-03-04T02:49:29.805Z,8.40
2023-03-04T02:52:27.657Z,8.30
2023-03-04T02:54:54.475Z,8.10
2023-03-04T02:57:21.395Z,8.20
2023-03-04T02:59:48.247Z,8.30
2023-03-04T03:02:15.229Z,8.40
2023-03-04T03:04:42.639Z,8.40
2023-03-04T03:07:09.871Z,8.30
2023-03-04T03:09:37.072Z,8.30
2023-03-04T03:12:04.140Z,8.40
2023-03-04T03:14:31.065Z,8.30
2023-03-04T03:16:57.993Z,8.40
2023-03-04T03:19:24.970Z,8.30
2023-03-04T03:21:58.165Z,8.40
2023-03-04T03:24:25.273Z,8.40
2023-03-04T03:26:52.152Z,8.60
2023-03-04T03:29:19.299Z,8.60
2023-03-04T03:31:46.450Z,8.40
2023-03-04T03:34:13.519Z,8.30
2023-03-04T03:36:40.516Z,8.40
2023-03-04T03:39:07.561Z,8.30
2023-03-04T03:41:34.434Z,8.40
2023-03-04T03:44:01.976Z,8.30
2023-03-04T03:46:30.005Z,8.30
2023-03-04T03:48:57.071Z,8.30
2023-03-04T03:51:23.979Z,8.30
2023-03-04T03:53:51.017Z,8.40
2023-03-04T03:56:18.065Z,8.30
2023-03-04T03:58:45.120Z,8.30
2023-03-04T04:01:12.421Z,8.30
2023-03-04T04:03:39.564Z,8.40
2023-03-04T04:06:06.856Z,8.40
2023-03-04T04:08:33.899Z,8.50
2023-03-04T04:11:00.856Z,8.40
2023-03-04T04:13:27.914Z,8.30
2023-03-04T04:15:55.048Z,8.40
2023-03-04T04:18:22.282Z,8.40
2023-03-04T04:20:49.317Z,8.40
2023-03-04T04:23:16.290Z,8.50
2023-03-04T04:25:43.111Z,8.60
2023-03-04T04:28:10.044Z,8.50
2023-03-04T04:30:37.165Z,8.50
2023-03-04T04:33:04.963Z,8.50
2023-03-04T04:35:38.966Z,8.40
2023-03-04T04:38:08.947Z,8.40
2023-03-04T04:40:36.615Z,8.40
2023-03-04T04:43:03.830Z,8.40
2023-03-04T04:45:30.827Z,8.40
2023-03-04T04:47:57.739Z,8.30
2023-03-04T04:50:25.689Z,8.40
2023-03-04T04:52:53.156Z,8.40
2023-03-04T04:55:20.274Z,8.40
2023-03-04T04:57:47.311Z,8.30
2023-03-04T05:00:14.865Z,8.50
2023-03-04T05:02:41.812Z,8.40
2023-03-04T05:05:09.081Z,8.40
2023-03-04T05:07:36.257Z,8.40
2023-03-04T05:10:03.973Z,8.40
2023-03-04T05:12:30.949Z,8.40
2023-03-04T05:14:57.933Z,8.30
2023-03-04T05:17:24.814Z,8.30
2023-03-04T05:19:51.740Z,8.40
2023-03-04T05:22:18.564Z,8.30
2023-03-04T05:24:45.463Z,8.40
2023-03-04T05:27:12.482Z,8.30
2023-03-04T05:29:39.392Z,8.20
2023-03-04T05:32:06.430Z,8.10
2023-03-04T05:34:33.317Z,8.30
2023-03-04T05:37:00.341Z,8.30
2023-03-04T05:39:27.217Z,8.30
2023-03-04T05:41:54.020Z,8.30
2023-03-04T05:44:20.899Z,8.20
2023-03-04T05:46:48.007Z,8.20
2023-03-04T05:49:14.907Z,8.30
2023-03-04T05:51:41.789Z,8.40
2023-03-04T05:54:08.820Z,8.40
2023-03-04T05:56:36.044Z,8.40
2023-03-04T05:59:03.122Z,8.30
2023-03-04T06:01:31.402Z,8.30
2023-03-04T06:03:58.560Z,8.30
2023-03-04T06:06:25.690Z,8.30
2023-03-04T06:08:52.910Z,8.40
2023-03-04T06:11:20.041Z,8.40
2023-03-04T06:13:47.137Z,8.40
2023-03-04T06:16:14.379Z,8.30
2023-03-04T06:18:41.445Z,8.30
2023-03-04T06:21:08.426Z,8.30
2023-03-04T06:23:35.542Z,8.30
2023-03-04T06:26:02.970Z,8.30
2023-03-04T06:28:30.247Z,8.40
2023-03-04T06:30:57.681Z,8.50
2023-03-04T06:33:25.636Z,8.40
2023-03-04T06:35:57.077Z,8.30
2023-03-04T06:38:24.880Z,8.30
2023-03-04T06:40:52.193Z,8.20
2023-03-04T06:43:19.573Z,8.20
2023-03-04T06:45:46.732Z,8.10
2023-03-04T06:48:14.047Z,8.20
2023-03-04T06:50:41.325Z,8.20
2023-03-04T06:53:08.188Z,8.10
2023-03-04T06:55:35.133Z,8.20
2023-03-04T06:58:01.963Z,8.30
2023-03-04T07:00:28.953Z,8.30
2023-03-04T07:02:55.899Z,8.30
2023-03-04T07:05:22.796Z,8.40
2023-03-04T07:07:49.824Z,8.30
2023-03-04T07:10:18.629Z,8.30
2023-03-04T07:12:46.067Z,8.50
2023-03-04T07:15:13.026Z,8.50
2023-03-04T07:17:40.197Z,8.50
2023-03-04T07:20:07.800Z,8.50
2023-03-04T07:22:34.927Z,8.40
2023-03-04T07:25:02.136Z,8.40
2023-03-04T07:27:29.177Z,8.50
2023-03-04T07:29:56.199Z,8.50
2023-03-04T07:32:23.302Z,8.50
2023-03-04T07:34:51.018Z,8.50
2023-03-04T07:37:18.684Z,8.60
2023-03-04T07:39:45.536Z,8.60
2023-03-04T07:42:12.523Z,8.60
2023-03-04T07:44:39.500Z,8.70
2023-03-04T07:47:06.566Z,8.50
2023-03-04T07:49:33.527Z,8.60
2023-03-04T07:52:04.292Z,8.70
2023-03-04T07:54:31.347Z,8.70
2023-03-04T07:56:58.336Z,8.60
2023-03-04T07:59:25.309Z,8.50
2023-03-04T08:01:52.122Z,8.60
2023-03-04T08:04:19.318Z,8.60
2023-03-04T08:06:46.907Z,8.50
2023-03-04T08:09:14.250Z,8.60
2023-03-04T08:11:41.968Z,8.60
2023-03-04T08:14:09.623Z,8.60
2023-03-04T08:16:36.714Z,8.70
2023-03-04T08:19:04.969Z,8.70
2023-03-04T08:21:32.296Z,8.80
2023-03-04T08:24:02.700Z,8.80
2023-03-04T08:26:34.156Z,8.80
2023-03-04T08:29:03.807Z,9.00
2023-03-04T08:31:31.429Z,9.10
2023-03-04T08:33:58.577Z,9.10
2023-03-04T08:36:25.580Z,9.00
2023-03-04T08:38:54.530Z,9.10
2023-03-04T08:41:22.843Z,9.10
2023-03-04T08:43:49.854Z,9.10
2023-03-04T08:46:16.871Z,9.30
2023-03-04T08:48:43.935Z,9.20
2023-03-04T08:51:13.860Z,9.20
2023-03-04T08:53:41.798Z,9.00
2023-03-04T08:56:10.141Z,9.20
2023-03-04T08:58:37.098Z,9.20
2023-03-04T09:01:04.886Z,9.20
2023-03-04T09:03:32.016Z,9.40
2023-03-04T09:05:59.223Z,9.30
2023-03-04T09:08:26.360Z,9.40
2023-03-04T09:10:54.925Z,9.50
2023-03-04T09:13:26.065Z,9.50
2023-03-04T09:15:53.838Z,9.60
2023-03-04T09:18:22.590Z,9.60
2023-03-04T09:20:49.780Z,9.60
2023-03-04T09:23:17.279Z,9.60
2023-03-04T09:25:46.558Z,9.50
2023-03-04T09:28:14.954Z,9.60
2023-03-04T09:30:42.538Z,9.40
2023-03-04T09:33:10.435Z,9.30
2023-03-04T09:35:37.763Z,9.40
2023-03-04T09:38:05.329Z,9.40
2023-03-04T09:40:49.651Z,9.40
2023-03-04T09:43:32.310Z,9.60
2023-03-04T09:46:05.447Z,9.70
2023-03-04T09:48:40.299Z,9.80
2023-03-04T09:51:07.880Z,9.80
2023-03-04T09:53:48.136Z,9.70
2023-03-04T09:56:15.211Z,9.60
2023-03-04T09:59:00.343Z,9.60
2023-03-04T10:01:36.870Z,9.70
2023-03-04T10:04:37.361Z,9.70
2023-03-04T10:07:06.282Z,9.60
2023-03-04T10:09:49.991Z,9.60
2023-03-04T10:12:21.593Z,9.50
2023-03-04T10:15:02.599Z,9.60
2023-03-04T10:17:35.265Z,9.70
2023-03-04T10:20:11.365Z,9.70
2023-03-04T10:22:49.210Z,9.90
2023-03-04T10:25:16.208Z,10.10
2023-03-04T10:27:54.248Z,10.20
2023-03-04T10:30:44.278Z,10.20
2023-03-04T10:33:23.536Z,10.40
2023-03-04T10:36:17.020Z,10.30
2023-03-04T10:38:45.804Z,10.60
2023-03-04T10:41:26.208Z,10.50
2023-03-04T10:44:11.474Z,10.50
2023-03-04T10:46:40.192Z,10.60
2023-03-04T10:49:07.946Z,10.50
2023-03-04T10:51:43.555Z,10.40
2023-03-04T10:54:17.105Z,10.40
2023-03-04T10:57:16.629Z,10.50
2023-03-04T10:59:56.019Z,10.40
2023-03-04T11:02:27.680Z,10.20
2023-03-04T11:05:14.959Z,10.10
2023-03-04T11:07:56.769Z,10.10
2023-03-04T11:10:26.534Z,9.90
2023-03-04T11:12:53.885Z,9.90
2023-03-04T11:15:27.468Z,9.80
2023-03-04T11:18:06.354Z,10.00
2023-03-04T11:20:34.689Z,10.10
2023-03-04T11:23:11.731Z,10.10
2023-03-04T11:25:47.736Z,10.20
2023-03-04T11:28:19.796Z,10.30
2023-03-04T11:30:54.931Z,10.30
2023-03-04T11:33:28.292Z,10.40
2023-03-04T11:36:16.642Z,10.40
2023-03-04T11:38:51.493Z,10.50
2023-03-04T11:41:30.553Z,10.40
2023-03-04T11:43:58.109Z,10.30
2023-03-04T11:46:37.090Z,10.50
2023-03-04T11:49:16.619Z,10.40
2023-03-04T11:51:53.540Z,10.40
2023-03-04T11:54:29.736Z,10.30
2023-03-04T11:57:22.728Z,10.30
2023-03-04T12:00:08.139Z,10.40
2023-03-04T12:02:48.956Z,10.60
2023-03-04T12:05:25.212Z,11.20
2023-03-04T12:08:14.132Z,11.60
2023-03-04T12:11:04.205Z,12.20
2023-03-04T12:13:49.202Z,12.70
2023-03-04T12:16:33.457Z,12.80
2023-03-04T12:19:24.394Z,12.50
2023-03-04T12:22:01.369Z,12.40
2023-03-04T12:25:02.428Z,12.30
2023-03-04T12:27:46.366Z,12.20
2023-03-04T12:30:31.375Z,11.80
2023-03-04T12:33:16.882Z,11.70
2023-03-04T12:35:44.036Z,11.70
2023-03-04T12:38:31.237Z,11.60
2023-03-04T12:41:28.296Z,11.50
2023-03-04T12:44:08.363Z,11.30
2023-03-04T12:47:07.195Z,11.50
2023-03-04T12:50:13.784Z,11.50
2023-03-04T12:52:52.687Z,11.40
2023-03-04T12:55:27.032Z,11.40
2023-03-04T12:57:57.242Z,11.50
2023-03-04T13:00:26.945Z,11.30
2023-03-04T13:03:10.466Z,11.10
2023-03-04T13:05:49.403Z,11.10
2023-03-04T13:08:46.205Z,11.00
2023-03-04T13:11:28.528Z,11.00
2023-03-04T13:14:01.443Z,11.10
2023-03-04T13:16:32.624Z,11.00
2023-03-04T13:18:59.956Z,10.90
2023-03-04T13:21:30.066Z,10.80
2023-03-04T13:23:58.360Z,10.80
2023-03-04T13:26:33.925Z,10.90
2023-03-04T13:29:19.010Z,11.00
2023-03-04T13:32:10.728Z,11.00
2023-03-04T13:34:49.802Z,11.20
2023-03-04T13:37:32.406Z,11.00
2023-03-04T13:40:33.094Z,11.10
2023-03-04T13:43:41.963Z,11.10
2023-03-04T13:46:21.077Z,11.10
2023-03-04T13:48:50.971Z,11.30
2023-03-04T13:51:30.479Z,11.40
2023-03-04T13:54:00.723Z,11.50
2023-03-04T13:56:37.113Z,11.40
2023-03-04T13:59:22.171Z,11.30
2023-03-04T14:01:55.902Z,11.50
2023-03-04T14:04:38.314Z,11.60
2023-03-04T14:07:27.591Z,12.10
2023-03-04T14:10:01.963Z,12.70
2023-03-04T14:12:31.377Z,12.90
2023-03-04T14:15:01.633Z,12.80
2023-03-04T14:17:39.253Z,12.50
2023-03-04T14:20:24.384Z,12.40
2023-03-04T14:22:51.681Z,12.20
2023-03-04T14:25:24.028Z,12.10
2023-03-04T14:28:01.926Z,11.90
2023-03-04T14:30:42.196Z,11.80
2023-03-04T14:33:17.576Z,11.70
2023-03-04T14:35:53.690Z,11.70
2023-03-04T14:38:30.010Z,11.60
2023-03-04T14:41:16.165Z,11.70
2023-03-04T14:44:04.738Z,11.50
2023-03-04T14:46:40.465Z,11.40
2023-03-04T14:49:12.467Z,11.20
2023-03-04T14:51:46.751Z,11.20
2023-03-04T14:54:35.488Z,11.20
2023-03-04T14:57:24.124Z,11.10
2023-03-04T14:59:54.751Z,11.20
2023-03-04T15:02:35.754Z,11.00
2023-03-04T15:05:16.785Z,11.00
2023-03-04T15:07:53.265Z,11.00
2023-03-04T15:10:30.511Z,11.00
2023-03-04T15:13:01.593Z,10.90
2023-03-04T15:15:43.819Z,10.80
2023-03-04T15:18:24.113Z,10.80
2023-03-04T15:21:04.062Z,10.90
2023-03-04T15:23:33.242Z,10.70
2023-03-04T15:26:03.640Z,10.70
2023-03-04T15:28:37.518Z,10.70
2023-03-04T15:31:05.901Z,10.80
2023-03-04T15:33:33.947Z,10.90
2023-03-04T15:36:03.198Z,10.70
2023-03-04T15:38:33.492Z,10.90
2023-03-04T15:41:00.985Z,10.90
2023-03-04T15:43:28.047Z,10.90
2023-03-04T15:45:55.169Z,11.10
2023-03-04T15:48:22.293Z,11.10
2023-03-04T15:51:00.974Z,11.50
2023-03-04T15:53:39.846Z,11.60
2023-03-04T15:56:12.896Z,11.50
2023-03-04T15:58:40.524Z,11.50
2023-03-04T16:01:07.514Z,11.50
2023-03-04T16:03:37.630Z,11.40
2023-03-04T16:06:13.095Z,11.30
2023-03-04T16:08:41.649Z,11.00
2023-03-04T16:11:16.346Z,11.00
2023-03-04T16:13:43.564Z,11.10
2023-03-04T16:16:12.237Z,11.20
2023-03-04T16:18:40.635Z,11.00
2023-03-04T16:21:11.936Z,10.90
2023-03-04T16:23:41.223Z,10.80
2023-03-04T16:26:17.258Z,10.60
2023-03-04T16:28:44.534Z,10.70
2023-03-04T16:31:13.654Z,10.70
2023-03-04T16:33:40.869Z,10.60
2023-03-04T16:36:36.058Z,10.60
2023-03-04T16:39:09.682Z,10.70
2023-03-04T16:41:37.164Z,10.60
2023-03-04T16:44:04.485Z,10.60
2023-03-04T16:46:31.482Z,10.70
2023-03-04T16:48:58.573Z,10.50
2023-03-04T16:51:25.595Z,10.50
2023-03-04T16:53:56.240Z,10.60
2023-03-04T16:56:23.684Z,10.60
2023-03-04T16:58:50.990Z,10.60
2023-03-04T17:01:22.707Z,10.60
2023-03-04T17:03:49.803Z,10.50
2023-03-04T17:06:17.292Z,10.50
2023-03-04T17:08:44.361Z,10.50
2023-03-04T17:11:20.885Z,10.60
2023-03-04T17:13:48.375Z,10.50
2023-03-04T17:16:15.619Z,10.40
2023-03-04T17:18:44.360Z,10.30
2023-03-04T17:21:14.170Z,10.30
2023-03-04T17:23:41.217Z,10.20
2023-03-04T17:26:09.362Z,10.20
2023-03-04T17:28:36.808Z,10.20
2023-03-04T17:31:10.277Z,10.20
2023-03-04T17:33:37.464Z,10.20
2023-03-04T17:36:04.945Z,10.20
2023-03-04T17:38:32.517Z,10.10
2023-03-04T17:41:12.024Z,9.90
2023-03-04T17:43:39.323Z,9.90
2023-03-04T17:46:09.383Z,9.80
2023-03-04T17:48:36.480Z,9.80
2023-03-04T17:51:04.268Z,9.80
2023-03-04T17:53:31.758Z,9.70
2023-03-04T17:56:01.042Z,9.70
2023-03-04T17:58:33.445Z,9.80
2023-03-04T18:01:02.599Z,9.80
2023-03-04T18:03:29.990Z,9.80
2023-03-04T18:05:57.518Z,9.90
2023-03-04T18:08:24.633Z,9.90
2023-03-04T18:10:51.750Z,9.80
2023-03-04T18:13:18.769Z,9.80
2023-03-04T18:15:46.399Z,9.70
2023-03-04T18:18:13.649Z,9.70
2023-03-04T18:20:40.752Z,9.70
2023-03-04T18:23:08.120Z,9.70
2023-03-04T18:25:35.436Z,9.50
2023-03-04T18:28:05.732Z,9.50
2023-03-04T18:30:32.917Z,9.60
2023-03-04T18:33:02.298Z,9.70
2023-03-04T18:35:29.514Z,9.70
2023-03-04T18:37:57.391Z,9.60
2023-03-04T18:40:24.287Z,9.70
2023-03-04T18:42:51.357Z,9.50
2023-03-04T18:45:18.532Z,9.50
2023-03-04T18:47:49.766Z,9.40
2023-03-04T18:50:17.933Z,9.40
2023-03-04T18:52:45.501Z,9.50
2023-03-04T18:55:13.134Z,9.50
2023-03-04T18:57:42.948Z,9.50
2023-03-04T19:00:13.814Z,9.60
2023-03-04T19:02:46.479Z,9.60
2023-03-04T19:05:27.442Z,9.60
2023-03-04T19:07:55.292Z,9.30
2023-03-04T19:10:22.754Z,9.30
2023-03-04T19:12:50.202Z,9.30
2023-03-04T19:15:18.770Z,9.20
2023-03-04T19:17:46.254Z,9.30
2023-03-04T19:20:15.296Z,9.30
2023-03-04T19:22:42.886Z,9.20
2023-03-04T19:25:10.253Z,9.20
2023-03-04T19:27:37.614Z,9.10
2023-03-04T19:30:06.520Z,9.00
2023-03-04T19:32:33.963Z,9.00
2023-03-04T19:35:01.243Z,9.00
2023-03-04T19:37:28.432Z,9.10
2023-03-04T19:39:59.099Z,9.00
2023-03-04T19:42:26.242Z,9.00
2023-03-04T19:44:53.269Z,9.00
2023-03-04T19:47:20.161Z,8.90
2023-03-04T19:49:47.272Z,8.90
2023-03-04T19:52:14.328Z,8.80
2023-03-04T19:54:41.276Z,8.80
2023-03-04T19:57:08.212Z,8.80
2023-03-04T19:59:35.961Z,8.80
2023-03-04T20:02:03.349Z,8.80
2023-03-04T20:04:30.546Z,8.80
2023-03-04T20:06:57.463Z,8.80
2023-03-04T20:09:24.498Z,8.80
2023-03-04T20:12:00.191Z,8.80
2023-03-04T20:14:31.354Z,8.80
2023-03-04T20:17:01.313Z,8.90
2023-03-04T20:19:29.502Z,8.90
2023-03-04T20:21:56.604Z,8.90
2023-03-04T20:24:26.557Z,9.00
2023-03-04T20:27:00.393Z,9.00
2023-03-04T20:29:30.052Z,8.90
2023-03-04T20:31:58.429Z,8.90
2023-03-04T20:34:27.113Z,9.00
2023-03-04T20:36:54.135Z,9.00
2023-03-04T20:39:29.295Z,8.90
2023-03-04T20:41:58.329Z,8.90
2023-03-04T20:44:26.202Z,8.80
2023-03-04T20:46:53.399Z,8.70
2023-03-04T20:49:24.316Z,8.70
2023-03-04T20:51:56.578Z,8.90
2023-03-04T20:54:30.550Z,9.00
2023-03-04T20:56:58.188Z,8.90
2023-03-04T20:59:25.212Z,9.10
2023-03-04T21:01:52.528Z,9.10
2023-03-04T21:04:20.415Z,9.10
2023-03-04T21:06:48.480Z,9.10
2023-03-04T21:09:17.895Z,9.10
2023-03-04T21:11:45.729Z,9.00
2023-03-04T21:14:33.049Z,8.90
2023-03-04T21:17:02.857Z,8.90
2023-03-04T21:19:37.826Z,8.90
2023-03-04T21:22:05.199Z,8.80
2023-03-04T21:24:37.410Z,8.80
2023-03-04T21:27:04.776Z,8.80
2023-03-04T21:29:31.985Z,8.90
2023-03-04T21:32:22.389Z,8.80
2023-03-04T21:34:52.463Z,8.80
2023-03-04T21:37:21.742Z,8.80
2023-03-04T21:39:48.873Z,8.70
2023-03-04T21:42:16.120Z,8.80
2023-03-04T21:44:51.607Z,8.70
2023-03-04T21:47:21.258Z,8.80
2023-03-04T21:49:51.505Z,8.60
2023-03-04T21:52:21.576Z,8.60
2023-03-04T21:54:49.773Z,8.50
2023-03-04T21:57:17.743Z,8.50
2023-03-04T21:59:44.930Z,8.50
2023-03-04T22:02:20.507Z,8.50
2023-03-04T22:04:48.604Z,8.50
2023-03-04T22:07:15.712Z,8.40
2023-03-04T22:09:43.006Z,8.50
2023-03-04T22:12:10.264Z,8.50
2023-03-04T22:14:38.029Z,8.50
2023-03-04T22:17:05.614Z,8.50
2023-03-04T22:19:33.567Z,8.60
2023-03-04T22:22:00.493Z,8.60
2023-03-04T22:24:27.712Z,8.50
2023-03-04T22:26:56.874Z,8.40
2023-03-04T22:29:23.938Z,8.40
2023-03-04T22:31:51.118Z,8.40
2023-03-04T22:34:18.755Z,8.40
2023-03-04T22:36:47.466Z,8.40
2023-03-04T22:39:21.282Z,8.40
2023-03-04T22:41:49.125Z,8.40
2023-03-04T22:44:16.060Z,8.40
2023-03-04T22:46:43.840Z,8.40
2023-03-04T22:49:14.648Z,8.40
2023-03-04T22:51:46.741Z,8.40
2023-03-04T22:54:15.951Z,8.30
2023-03-04T22:56:43.109Z,8.40
2023-03-04T22:59:13.801Z,8.30
2023-03-04T23:01:41.841Z,8.40
2023-03-04T23:04:08.744Z,8.30
2023-03-04T23:06:36.435Z,8.20
2023-03-04T23:09:15.528Z,8.10
2023-03-04T23:11:42.897Z,8.10
2023-03-04T23:14:11.823Z,8.20
2023-03-04T23:16:43.178Z,8.30
2023-03-04T23:19:16.662Z,8.30
2023-03-04T23:21:44.637Z,8.40
2023-03-04T23:24:13.033Z,8.30
2023-03-04T23:26:42.668Z,8.40
2023-03-04T23:29:12.027Z,8.30
2023-03-04T23:31:39.140Z,8.30
2023-03-04T23:34:07.085Z,8.20
2023-03-04T23:36:36.337Z,8.30
2023-03-04T23:39:04.215Z,8.30
2023-03-04T23:41:31.859Z,8.40
2023-03-04T23:44:00.020Z,8.40
2023-03-04T23:46:28.454Z,8.30
2023-03-04T23:48:56.362Z,8.40
2023-03-04T23:51:26.170Z,8.40
2023-03-04T23:53:53.530Z,8.30
2023-03-04T23:56:27.096Z,8.30
2023-03-04T23:58:54.628Z,8.30
